createdAt,value
2022-12-29T00:00:04.339Z, 29.76
2022-12-29T00:01:04.346Z, 29.74
2022-12-29T00:02:04.330Z, 29.76
2022-12-29T00:03:04.510Z, 29.75
2022-12-29T00:04:04.450Z, 29.76
2022-12-29T00:05:04.369Z, 29.72
2022-12-29T00:06:04.392Z, 29.71
2022-12-29T00:07:04.402Z, 29.72
2022-12-29T00:08:04.390Z, 29.72
2022-12-29T00:09:04.383Z, 29.74
2022-12-29T00:10:04.400Z, 29.74
2022-12-29T00:11:04.468Z, 29.72
2022-12-29T00:12:04.409Z, 29.71
2022-12-29T00:13:04.475Z, 29.68
2022-12-29T00:14:04.462Z, 29.66
2022-12-29T00:15:04.531Z, 29.66
2022-12-29T00:16:04.557Z, 29.68
2022-12-29T00:17:04.532Z, 29.68
2022-12-29T00:18:04.529Z, 29.67
2022-12-29T00:19:04.550Z, 29.65
2022-12-29T00:20:04.526Z, 29.61
2022-12-29T00:21:04.529Z, 29.61
2022-12-29T00:22:04.574Z, 29.61
2022-12-29T00:23:04.570Z, 29.63
2022-12-29T00:24:04.600Z, 29.63
2022-12-29T00:25:04.574Z, 29.58
2022-12-29T00:26:04.621Z, 29.60
2022-12-29T00:27:04.611Z, 29.58
2022-12-29T00:28:07.556Z, 29.58
2022-12-29T00:29:04.621Z, 29.58
2022-12-29T00:30:04.618Z, 29.55
2022-12-29T00:31:04.706Z, 29.56
2022-12-29T00:32:04.664Z, 29.56
2022-12-29T00:33:04.667Z, 29.55
2022-12-29T00:34:04.670Z, 29.56
2022-12-29T00:35:04.708Z, 29.60
2022-12-29T00:36:04.703Z, 29.56
2022-12-29T00:37:04.762Z, 29.54
2022-12-29T00:38:04.772Z, 29.51
2022-12-29T00:39:04.761Z, 29.52
2022-12-29T00:40:04.800Z, 29.50
2022-12-29T00:41:04.789Z, 29.46
2022-12-29T00:42:04.785Z, 29.48
2022-12-29T00:43:04.787Z, 29.49
2022-12-29T00:44:04.845Z, 29.49
2022-12-29T00:45:04.841Z, 29.50
2022-12-29T00:46:04.883Z, 29.49
2022-12-29T00:47:04.960Z, 29.47
2022-12-29T00:48:04.893Z, 29.44
2022-12-29T00:49:04.877Z, 29.43
2022-12-29T00:50:04.938Z, 29.45
2022-12-29T00:51:04.905Z, 29.46
2022-12-29T00:52:04.943Z, 29.47
2022-12-29T00:53:04.914Z, 29.43
2022-12-29T00:54:04.921Z, 29.40
2022-12-29T00:55:04.971Z, 29.42
2022-12-29T00:56:04.935Z, 29.42
2022-12-29T00:57:05.026Z, 29.40
2022-12-29T00:58:05.006Z, 29.38
2022-12-29T00:59:05.027Z, 29.40
2022-12-29T01:00:05.043Z, 29.40
2022-12-29T01:01:05.157Z, 29.38
2022-12-29T01:02:05.152Z, 29.35
2022-12-29T01:03:05.068Z, 29.38
2022-12-29T01:04:05.081Z, 29.39
2022-12-29T01:05:05.099Z, 29.37
2022-12-29T01:06:05.132Z, 29.34
2022-12-29T01:07:05.107Z, 29.32
2022-12-29T01:08:05.137Z, 29.29
2022-12-29T01:09:05.125Z, 29.28
2022-12-29T01:10:05.145Z, 29.25
2022-12-29T01:11:05.132Z, 29.27
2022-12-29T01:12:05.127Z, 29.25
2022-12-29T01:13:05.130Z, 29.26
2022-12-29T01:14:05.154Z, 29.29
2022-12-29T01:15:05.148Z, 29.28
2022-12-29T01:16:05.200Z, 29.32
2022-12-29T01:17:05.170Z, 29.29
2022-12-29T01:18:05.164Z, 29.28
2022-12-29T01:19:05.242Z, 29.28
2022-12-29T01:20:05.196Z, 29.26
2022-12-29T01:21:05.282Z, 29.23
2022-12-29T01:22:05.260Z, 29.24
2022-12-29T01:23:05.292Z, 29.24
2022-12-29T01:24:05.294Z, 29.21
2022-12-29T01:25:05.273Z, 29.20
2022-12-29T01:26:05.360Z, 29.20
2022-12-29T01:27:05.294Z, 29.22
2022-12-29T01:28:05.356Z, 29.24
2022-12-29T01:29:05.347Z, 29.19
2022-12-29T01:30:05.344Z, 29.15
2022-12-29T01:31:05.463Z, 29.16
2022-12-29T01:32:05.420Z, 29.12
2022-12-29T01:33:05.401Z, 29.13
2022-12-29T01:34:05.399Z, 29.11
2022-12-29T01:35:05.405Z, 29.12
2022-12-29T01:36:05.409Z, 29.10
2022-12-29T01:37:05.433Z, 29.11
2022-12-29T01:38:05.411Z, 29.11
2022-12-29T01:39:05.424Z, 29.11
2022-12-29T01:40:05.510Z, 29.09
2022-12-29T01:41:05.493Z, 29.06
2022-12-29T01:42:05.542Z, 29.10
2022-12-29T01:43:05.516Z, 29.09
2022-12-29T01:44:05.536Z, 29.10
2022-12-29T01:45:05.523Z, 29.05
2022-12-29T01:46:05.618Z, 29.01
2022-12-29T01:47:05.539Z, 29.02
2022-12-29T01:48:05.544Z, 29.01
2022-12-29T01:49:05.538Z, 29.00
2022-12-29T01:50:05.566Z, 29.03
2022-12-29T01:51:05.568Z, 29.03
2022-12-29T01:52:05.579Z, 29.03
2022-12-29T01:53:05.596Z, 29.01
2022-12-29T01:54:05.607Z, 28.99
2022-12-29T01:55:05.679Z, 29.00
2022-12-29T01:56:05.675Z, 28.97
2022-12-29T01:57:05.715Z, 28.98
2022-12-29T01:58:05.709Z, 28.97
2022-12-29T01:59:05.750Z, 29.00
2022-12-29T02:00:05.711Z, 28.99
2022-12-29T02:01:05.759Z, 28.96
2022-12-29T02:02:05.821Z, 28.95
2022-12-29T02:03:05.760Z, 28.96
2022-12-29T02:04:05.801Z, 28.94
2022-12-29T02:05:05.753Z, 28.92
2022-12-29T02:06:05.759Z, 28.95
2022-12-29T02:07:05.765Z, 28.98
2022-12-29T02:08:05.763Z, 28.96
2022-12-29T02:09:05.812Z, 28.94
2022-12-29T02:10:05.811Z, 28.91
2022-12-29T02:11:05.809Z, 28.92
2022-12-29T02:12:05.856Z, 28.94
2022-12-29T02:13:05.823Z, 28.95
2022-12-29T02:14:05.915Z, 28.92
2022-12-29T02:15:05.894Z, 28.92
2022-12-29T02:16:05.984Z, 28.89
2022-12-29T02:17:05.890Z, 28.90
2022-12-29T02:18:05.970Z, 28.88
2022-12-29T02:19:05.919Z, 28.92
2022-12-29T02:20:05.960Z, 28.87
2022-12-29T02:21:05.937Z, 28.85
2022-12-29T02:22:05.971Z, 28.84
2022-12-29T02:23:05.961Z, 28.83
2022-12-29T02:24:05.963Z, 28.84
2022-12-29T02:25:06.052Z, 28.84
2022-12-29T02:26:06.008Z, 28.82
2022-12-29T02:27:06.052Z, 28.82
2022-12-29T02:28:06.029Z, 28.78
2022-12-29T02:29:06.065Z, 28.76
2022-12-29T02:30:06.052Z, 28.74
2022-12-29T02:31:06.066Z, 28.75
2022-12-29T02:32:06.082Z, 28.78
2022-12-29T02:33:06.047Z, 28.78
2022-12-29T02:34:06.127Z, 28.77
2022-12-29T02:35:06.110Z, 28.78
2022-12-29T02:36:06.154Z, 28.77
2022-12-29T02:37:06.173Z, 28.76
2022-12-29T02:38:06.178Z, 28.78
2022-12-29T02:39:06.199Z, 28.75
2022-12-29T02:40:06.179Z, 28.75
2022-12-29T02:41:06.177Z, 28.74
2022-12-29T02:42:06.180Z, 28.74
2022-12-29T02:43:06.265Z, 28.74
2022-12-29T02:44:06.201Z, 28.71
2022-12-29T02:45:06.204Z, 28.67
2022-12-29T02:46:06.270Z, 28.68
2022-12-29T02:47:06.301Z, 28.69
2022-12-29T02:48:06.345Z, 28.73
2022-12-29T02:49:06.298Z, 28.70
2022-12-29T02:50:06.296Z, 28.67
2022-12-29T02:51:06.291Z, 28.68
2022-12-29T02:52:06.324Z, 28.66
2022-12-29T02:53:06.328Z, 28.68
2022-12-29T02:54:06.327Z, 28.67
2022-12-29T02:55:06.341Z, 28.66
2022-12-29T02:56:06.395Z, 28.64
2022-12-29T02:57:06.376Z, 28.61
2022-12-29T02:58:06.443Z, 28.60
2022-12-29T02:59:06.426Z, 28.63
2022-12-29T03:00:06.443Z, 28.58
2022-12-29T03:01:06.456Z, 28.58
2022-12-29T03:02:06.643Z, 28.61
2022-12-29T03:03:06.515Z, 28.59
2022-12-29T03:04:06.429Z, 28.54
2022-12-29T03:05:06.506Z, 28.53
2022-12-29T03:06:06.459Z, 28.52
2022-12-29T03:07:07.478Z, 28.51
2022-12-29T03:08:06.528Z, 28.51
2022-12-29T03:09:06.499Z, 28.52
2022-12-29T03:10:06.604Z, 28.53
2022-12-29T03:11:06.576Z, 28.52
2022-12-29T03:12:06.555Z, 28.52
2022-12-29T03:13:06.558Z, 28.54
2022-12-29T03:14:06.550Z, 28.50
2022-12-29T03:15:06.647Z, 28.46
2022-12-29T03:16:06.669Z, 28.48
2022-12-29T03:17:06.757Z, 28.51
2022-12-29T03:18:06.634Z, 28.50
2022-12-29T03:19:06.708Z, 28.47
2022-12-29T03:20:06.689Z, 28.50
2022-12-29T03:21:06.698Z, 28.51
2022-12-29T03:22:06.683Z, 28.53
2022-12-29T03:23:06.683Z, 28.49
2022-12-29T03:24:06.732Z, 28.48
2022-12-29T03:25:06.708Z, 28.46
2022-12-29T03:26:06.717Z, 28.46
2022-12-29T03:27:06.707Z, 28.47
2022-12-29T03:28:06.730Z, 28.45
2022-12-29T03:29:06.744Z, 28.43
2022-12-29T03:30:06.812Z, 28.42
2022-12-29T03:31:06.812Z, 28.43
2022-12-29T03:32:06.795Z, 28.42
2022-12-29T03:33:06.800Z, 28.43
2022-12-29T03:34:06.842Z, 28.43
2022-12-29T03:35:06.822Z, 28.42
2022-12-29T03:36:06.847Z, 28.39
2022-12-29T03:37:06.865Z, 28.39
2022-12-29T03:38:06.872Z, 28.40
2022-12-29T03:39:06.892Z, 28.39
2022-12-29T03:40:06.895Z, 28.38
2022-12-29T03:41:06.976Z, 28.35
2022-12-29T03:42:06.967Z, 28.32
2022-12-29T03:43:06.975Z, 28.32
2022-12-29T03:44:06.992Z, 28.32
2022-12-29T03:45:06.973Z, 28.34
2022-12-29T03:46:07.061Z, 28.28
2022-12-29T03:47:06.971Z, 28.26
2022-12-29T03:48:06.999Z, 28.28
2022-12-29T03:49:07.012Z, 28.30
2022-12-29T03:50:07.055Z, 28.28
2022-12-29T03:51:07.069Z, 28.25
2022-12-29T03:52:07.042Z, 28.26
2022-12-29T03:53:07.106Z, 28.26
2022-12-29T03:54:07.346Z, 28.24
2022-12-29T03:55:07.098Z, 28.22
2022-12-29T03:56:07.096Z, 28.24
2022-12-29T03:57:07.155Z, 28.21
2022-12-29T03:58:07.173Z, 28.22
2022-12-29T03:59:07.164Z, 28.22
2022-12-29T04:00:07.144Z, 28.23
2022-12-29T04:01:07.204Z, 28.25
2022-12-29T04:02:07.303Z, 28.24
2022-12-29T04:03:07.223Z, 28.23
2022-12-29T04:04:07.260Z, 28.23
2022-12-29T04:05:07.250Z, 28.20
2022-12-29T04:06:07.303Z, 28.19
2022-12-29T04:07:07.295Z, 28.17
2022-12-29T04:08:07.322Z, 28.19
2022-12-29T04:09:07.320Z, 28.17
2022-12-29T04:10:07.338Z, 28.17
2022-12-29T04:11:07.336Z, 28.18
2022-12-29T04:12:07.314Z, 28.14
2022-12-29T04:13:07.387Z, 28.14
2022-12-29T04:14:07.387Z, 28.16
2022-12-29T04:15:07.490Z, 28.16
2022-12-29T04:16:07.455Z, 28.15
2022-12-29T04:17:07.423Z, 28.15
2022-12-29T04:18:07.420Z, 28.16
2022-12-29T04:19:07.436Z, 28.14
2022-12-29T04:20:07.422Z, 28.17
2022-12-29T04:21:07.659Z, 28.19
2022-12-29T04:22:07.462Z, 28.20
2022-12-29T04:23:07.457Z, 28.16
2022-12-29T04:24:07.609Z, 28.16
2022-12-29T04:25:07.509Z, 28.17
2022-12-29T04:26:07.503Z, 28.16
2022-12-29T04:27:07.497Z, 28.13
2022-12-29T04:28:07.577Z, 28.10
2022-12-29T04:29:07.561Z, 28.08
2022-12-29T04:30:07.579Z, 28.08
2022-12-29T04:31:07.616Z, 28.14
2022-12-29T04:32:07.587Z, 29.21
2022-12-29T04:33:07.664Z, 29.80
2022-12-29T04:34:07.611Z, 35.20
2022-12-29T04:35:07.652Z, 41.60
2022-12-29T04:36:07.675Z, 44.02
2022-12-29T04:37:07.630Z, 42.95
2022-12-29T04:38:07.640Z, 40.90
2022-12-29T04:39:07.697Z, 38.07
2022-12-29T04:40:07.656Z, 35.67
2022-12-29T04:41:07.669Z, 33.81
2022-12-29T04:42:07.672Z, 32.12
2022-12-29T04:43:07.673Z, 30.79
2022-12-29T04:44:07.679Z, 29.50
2022-12-29T04:45:07.703Z, 27.90
2022-12-29T04:46:07.880Z, 26.06
2022-12-29T04:47:07.742Z, 24.55
2022-12-29T04:48:07.793Z, 27.99
2022-12-29T04:49:07.786Z, 33.27
2022-12-29T04:50:07.785Z, 37.11
2022-12-29T04:51:07.781Z, 39.79
2022-12-29T04:52:07.790Z, 41.85
2022-12-29T04:53:07.857Z, 42.47
2022-12-29T04:54:07.848Z, 40.33
2022-12-29T04:55:07.885Z, 37.98
2022-12-29T04:56:07.884Z, 35.71
2022-12-29T04:57:07.877Z, 33.67
2022-12-29T04:58:07.883Z, 31.70
2022-12-29T04:59:07.881Z, 29.23
2022-12-29T05:00:07.883Z, 27.63
2022-12-29T05:01:07.894Z, 28.23
2022-12-29T05:02:08.028Z, 28.83
2022-12-29T05:03:08.112Z, 31.08
2022-12-29T05:04:07.918Z, 35.89
2022-12-29T05:05:07.949Z, 39.92
2022-12-29T05:06:07.964Z, 44.47
2022-12-29T05:07:07.961Z, 49.09
2022-12-29T05:08:08.052Z, 53.34
2022-12-29T05:09:08.030Z, 57.36
2022-12-29T05:10:08.071Z, 62.27
2022-12-29T05:11:08.062Z, 62.90
2022-12-29T05:12:08.087Z, 51.83
2022-12-29T05:13:08.113Z, 52.79
2022-12-29T05:14:08.073Z, 53.88
2022-12-29T05:15:08.128Z, 55.88
2022-12-29T05:16:08.167Z, 58.80
2022-12-29T05:17:08.158Z, 64.02
2022-12-29T05:18:08.145Z, 64.03
2022-12-29T05:19:08.163Z, 53.07
2022-12-29T05:20:08.176Z, 53.91
2022-12-29T05:21:08.205Z, 55.25
2022-12-29T05:22:08.167Z, 57.16
2022-12-29T05:23:08.236Z, 60.19
2022-12-29T05:24:08.215Z, 69.28
2022-12-29T05:25:08.219Z, 58.63
2022-12-29T05:26:08.266Z, 53.46
2022-12-29T05:27:08.249Z, 54.73
2022-12-29T05:28:08.243Z, 55.46
2022-12-29T05:29:08.247Z, 56.12
2022-12-29T05:30:08.282Z, 57.20
2022-12-29T05:31:08.340Z, 56.94
2022-12-29T05:32:08.276Z, 55.08
2022-12-29T05:33:08.298Z, 53.77
2022-12-29T05:34:08.294Z, 52.82
2022-12-29T05:35:08.373Z, 52.22
2022-12-29T05:36:08.366Z, 51.43
2022-12-29T05:37:08.399Z, 50.54
2022-12-29T05:38:08.386Z, 49.58
2022-12-29T05:39:08.388Z, 48.85
2022-12-29T05:40:08.378Z, 48.20
2022-12-29T05:41:08.380Z, 47.63
2022-12-29T05:42:08.395Z, 47.10
2022-12-29T05:43:08.395Z, 46.57
2022-12-29T05:44:08.393Z, 46.03
2022-12-29T05:45:08.401Z, 45.54
2022-12-29T05:46:08.511Z, 45.05
2022-12-29T05:47:08.562Z, 44.58
2022-12-29T05:48:08.544Z, 44.16
2022-12-29T05:49:08.505Z, 43.73
2022-12-29T05:50:08.525Z, 43.34
2022-12-29T05:51:08.522Z, 42.98
2022-12-29T05:52:08.525Z, 42.66
2022-12-29T05:53:08.548Z, 42.39
2022-12-29T05:54:08.545Z, 42.15
2022-12-29T05:55:08.628Z, 41.92
2022-12-29T05:56:08.620Z, 41.74
2022-12-29T05:57:08.636Z, 41.50
2022-12-29T05:58:08.638Z, 41.31
2022-12-29T05:59:08.621Z, 41.09
2022-12-29T06:00:08.669Z, 40.91
2022-12-29T06:01:08.681Z, 40.76
2022-12-29T06:02:08.895Z, 40.59
2022-12-29T06:03:08.895Z, 40.43
2022-12-29T06:04:08.803Z, 40.22
2022-12-29T06:05:08.719Z, 40.02
2022-12-29T06:06:08.697Z, 39.78
2022-12-29T06:07:08.752Z, 39.49
2022-12-29T06:08:08.704Z, 39.15
2022-12-29T06:09:08.777Z, 38.79
2022-12-29T06:10:08.736Z, 38.40
2022-12-29T06:11:08.753Z, 37.97
2022-12-29T06:12:08.754Z, 37.50
2022-12-29T06:13:08.793Z, 37.02
2022-12-29T06:14:08.777Z, 36.54
2022-12-29T06:15:08.801Z, 35.99
2022-12-29T06:16:08.872Z, 35.51
2022-12-29T06:17:08.814Z, 35.43
2022-12-29T06:18:08.913Z, 35.22
2022-12-29T06:19:08.864Z, 35.00
2022-12-29T06:20:08.932Z, 34.92
2022-12-29T06:21:08.911Z, 34.86
2022-12-29T06:22:08.899Z, 34.77
2022-12-29T06:23:08.968Z, 34.67
2022-12-29T06:24:08.938Z, 34.57
2022-12-29T06:25:08.974Z, 34.48
2022-12-29T06:26:08.960Z, 34.37
2022-12-29T06:27:08.983Z, 34.27
2022-12-29T06:28:08.968Z, 34.18
2022-12-29T06:29:08.976Z, 34.09
2022-12-29T06:30:08.976Z, 33.98
2022-12-29T06:31:08.973Z, 33.89
2022-12-29T06:32:09.148Z, 33.80
2022-12-29T06:33:09.012Z, 33.73
2022-12-29T06:34:09.067Z, 33.64
2022-12-29T06:35:09.075Z, 33.55
2022-12-29T06:36:09.074Z, 33.45
2022-12-29T06:37:09.080Z, 33.37
2022-12-29T06:38:09.069Z, 33.28
2022-12-29T06:39:09.079Z, 33.19
2022-12-29T06:40:09.086Z, 33.09
2022-12-29T06:41:09.186Z, 33.00
2022-12-29T06:42:09.161Z, 32.93
2022-12-29T06:43:09.165Z, 32.85
2022-12-29T06:44:09.185Z, 32.77
2022-12-29T06:45:09.155Z, 32.67
2022-12-29T06:46:09.391Z, 32.60
2022-12-29T06:47:09.220Z, 32.51
2022-12-29T06:48:09.222Z, 32.45
2022-12-29T06:49:09.216Z, 32.37
2022-12-29T06:50:09.292Z, 32.27
2022-12-29T06:51:09.260Z, 32.20
2022-12-29T06:52:12.989Z, 32.12
2022-12-29T06:53:09.264Z, 32.09
2022-12-29T06:54:09.284Z, 32.02
2022-12-29T06:55:09.341Z, 31.97
2022-12-29T06:56:09.331Z, 31.91
2022-12-29T06:57:09.366Z, 31.86
2022-12-29T06:58:09.350Z, 31.79
2022-12-29T06:59:09.357Z, 31.73
2022-12-29T07:00:09.400Z, 31.70
2022-12-29T07:01:09.432Z, 31.65
2022-12-29T07:02:09.591Z, 31.59
2022-12-29T07:03:09.455Z, 31.54
2022-12-29T07:04:09.457Z, 31.50
2022-12-29T07:05:09.415Z, 31.46
2022-12-29T07:06:09.441Z, 31.40
2022-12-29T07:07:09.439Z, 31.36
2022-12-29T07:08:09.483Z, 31.31
2022-12-29T07:09:09.468Z, 31.27
2022-12-29T07:10:09.467Z, 31.22
2022-12-29T07:11:09.493Z, 31.16
2022-12-29T07:12:09.509Z, 31.11
2022-12-29T07:13:09.487Z, 31.06
2022-12-29T07:14:09.481Z, 31.04
2022-12-29T07:15:09.502Z, 31.02
2022-12-29T07:16:09.548Z, 30.98
2022-12-29T07:17:09.654Z, 30.93
2022-12-29T07:18:09.545Z, 30.90
2022-12-29T07:19:09.616Z, 30.84
2022-12-29T07:20:09.628Z, 30.81
2022-12-29T07:21:09.655Z, 30.77
2022-12-29T07:22:09.623Z, 30.74
2022-12-29T07:23:09.660Z, 30.69
2022-12-29T07:24:09.648Z, 30.66
2022-12-29T07:25:09.689Z, 30.62
2022-12-29T07:26:09.660Z, 30.59
2022-12-29T07:27:09.706Z, 30.55
2022-12-29T07:28:09.678Z, 30.50
2022-12-29T07:29:09.722Z, 30.50
2022-12-29T07:30:09.705Z, 30.46
2022-12-29T07:31:09.723Z, 30.42
2022-12-29T07:32:09.789Z, 30.38
2022-12-29T07:33:09.705Z, 30.34
2022-12-29T07:34:09.744Z, 30.31
2022-12-29T07:35:09.721Z, 30.27
2022-12-29T07:36:09.781Z, 30.24
2022-12-29T07:37:09.740Z, 30.20
2022-12-29T07:38:09.815Z, 30.15
2022-12-29T07:39:09.800Z, 30.11
2022-12-29T07:40:09.814Z, 30.07
2022-12-29T07:41:09.814Z, 30.03
2022-12-29T07:42:09.866Z, 30.04
2022-12-29T07:43:09.860Z, 30.02
2022-12-29T07:44:09.846Z, 30.00
2022-12-29T07:45:09.854Z, 29.94
2022-12-29T07:46:14.601Z, 29.91
2022-12-29T07:47:09.898Z, 29.89
2022-12-29T07:48:09.881Z, 29.88
2022-12-29T07:49:09.882Z, 29.85
2022-12-29T07:50:09.915Z, 29.83
2022-12-29T07:51:09.955Z, 29.81
2022-12-29T07:52:09.939Z, 29.77
2022-12-29T07:53:10.005Z, 29.77
2022-12-29T07:54:09.990Z, 29.75
2022-12-29T07:55:10.006Z, 29.73
2022-12-29T07:56:09.988Z, 29.69
2022-12-29T07:57:09.994Z, 29.68
2022-12-29T07:58:10.003Z, 29.67
2022-12-29T07:59:10.012Z, 29.64
2022-12-29T08:00:10.122Z, 29.61
2022-12-29T08:01:10.148Z, 29.58
2022-12-29T08:02:10.277Z, 29.57
2022-12-29T08:03:10.082Z, 29.56
2022-12-29T08:04:10.120Z, 29.55
2022-12-29T08:05:10.183Z, 29.52
2022-12-29T08:06:10.118Z, 29.47
2022-12-29T08:07:10.132Z, 29.43
2022-12-29T08:08:10.132Z, 29.43
2022-12-29T08:09:15.142Z, 29.44
2022-12-29T08:10:10.243Z, 29.44
2022-12-29T08:11:10.198Z, 29.44
2022-12-29T08:12:10.237Z, 29.44
2022-12-29T08:13:10.240Z, 29.40
2022-12-29T08:14:10.243Z, 29.36
2022-12-29T08:15:10.246Z, 29.36
2022-12-29T08:16:10.398Z, 29.34
2022-12-29T08:17:10.278Z, 29.35
2022-12-29T08:18:10.268Z, 29.32
2022-12-29T08:19:10.261Z, 29.30
2022-12-29T08:20:10.264Z, 29.29
2022-12-29T08:21:10.264Z, 29.25
2022-12-29T08:22:10.273Z, 29.24
2022-12-29T08:23:10.300Z, 29.22
2022-12-29T08:24:10.390Z, 29.21
2022-12-29T08:25:10.337Z, 29.18
2022-12-29T08:26:10.320Z, 29.18
2022-12-29T08:27:18.130Z, 29.17
2022-12-29T08:28:10.371Z, 29.14
2022-12-29T08:29:10.422Z, 29.13
2022-12-29T08:30:10.394Z, 29.11
2022-12-29T08:31:10.481Z, 29.08
2022-12-29T08:32:10.418Z, 29.08
2022-12-29T08:33:10.414Z, 29.09
2022-12-29T08:34:10.482Z, 29.05
2022-12-29T08:35:10.460Z, 29.07
2022-12-29T08:36:10.509Z, 29.05
2022-12-29T08:37:10.496Z, 29.05
2022-12-29T08:38:10.509Z, 29.03
2022-12-29T08:39:10.514Z, 29.02
2022-12-29T08:40:10.516Z, 29.01
2022-12-29T08:41:10.544Z, 29.01
2022-12-29T08:42:10.563Z, 28.98
2022-12-29T08:43:10.840Z, 28.96
2022-12-29T08:44:10.559Z, 28.96
2022-12-29T08:45:10.579Z, 28.94
2022-12-29T08:46:10.635Z, 28.93
2022-12-29T08:47:10.553Z, 28.90
2022-12-29T08:48:10.594Z, 28.87
2022-12-29T08:49:10.574Z, 28.88
2022-12-29T08:50:10.642Z, 28.84
2022-12-29T08:51:10.635Z, 28.83
2022-12-29T08:52:10.635Z, 28.83
2022-12-29T08:53:10.664Z, 28.82
2022-12-29T08:54:10.651Z, 28.85
2022-12-29T08:55:10.704Z, 28.84
2022-12-29T08:56:10.684Z, 28.80
2022-12-29T08:57:10.687Z, 28.76
2022-12-29T08:58:10.690Z, 28.75
2022-12-29T08:59:10.679Z, 28.78
2022-12-29T09:00:10.727Z, 28.77
2022-12-29T09:01:10.800Z, 28.74
2022-12-29T09:02:10.972Z, 28.71
2022-12-29T09:03:11.009Z, 28.69
2022-12-29T09:04:16.015Z, 28.66
2022-12-29T09:05:10.904Z, 28.65
2022-12-29T09:06:10.782Z, 28.68
2022-12-29T09:07:10.831Z, 28.66
2022-12-29T09:08:10.812Z, 28.66
2022-12-29T09:09:10.879Z, 29.42
2022-12-29T09:10:10.870Z, 30.04
2022-12-29T09:11:10.869Z, 37.60
2022-12-29T09:12:10.860Z, 42.70
2022-12-29T09:13:10.897Z, 41.02
2022-12-29T09:14:10.877Z, 38.83
2022-12-29T09:15:10.875Z, 36.84
2022-12-29T09:16:10.996Z, 35.31
2022-12-29T09:17:10.879Z, 34.20
2022-12-29T09:18:14.878Z, 33.01
2022-12-29T09:19:10.895Z, 31.63
2022-12-29T09:20:10.986Z, 30.53
2022-12-29T09:21:10.958Z, 29.66
2022-12-29T09:22:10.983Z, 28.67
2022-12-29T09:23:10.976Z, 27.58
2022-12-29T09:24:11.010Z, 26.43
2022-12-29T09:25:11.010Z, 26.53
2022-12-29T09:26:11.027Z, 31.96
2022-12-29T09:27:11.017Z, 37.20
2022-12-29T09:28:11.025Z, 39.99
2022-12-29T09:29:11.028Z, 43.35
2022-12-29T09:30:11.108Z, 45.61
2022-12-29T09:31:11.117Z, 46.00
2022-12-29T09:32:17.127Z, 45.78
2022-12-29T09:33:11.049Z, 45.46
2022-12-29T09:34:11.042Z, 45.16
2022-12-29T09:35:11.120Z, 44.73
2022-12-29T09:36:11.072Z, 43.46
2022-12-29T09:37:11.097Z, 41.49
2022-12-29T09:38:11.092Z, 39.43
2022-12-29T09:39:11.084Z, 37.40
2022-12-29T09:40:11.132Z, 35.58
2022-12-29T09:41:11.090Z, 34.06
2022-12-29T09:42:11.157Z, 32.73
2022-12-29T09:43:11.120Z, 31.38
2022-12-29T09:44:11.137Z, 29.79
2022-12-29T09:45:11.121Z, 29.58
2022-12-29T09:46:11.169Z, 35.39
2022-12-29T09:47:11.202Z, 40.40
2022-12-29T09:48:11.155Z, 43.64
2022-12-29T09:49:11.207Z, 42.78
2022-12-29T09:50:11.174Z, 41.17
2022-12-29T09:51:11.217Z, 40.13
2022-12-29T09:52:11.214Z, 38.75
2022-12-29T09:53:11.276Z, 37.95
2022-12-29T09:54:11.257Z, 38.23
2022-12-29T09:55:14.068Z, 38.23
2022-12-29T09:56:11.285Z, 38.22
2022-12-29T09:57:11.286Z, 38.10
2022-12-29T09:58:11.274Z, 37.97
2022-12-29T09:59:11.270Z, 37.83
2022-12-29T10:00:11.264Z, 37.72
2022-12-29T10:01:11.408Z, 37.62
2022-12-29T10:02:11.527Z, 37.48
2022-12-29T10:03:11.558Z, 37.38
2022-12-29T10:04:11.321Z, 37.29
2022-12-29T10:05:11.326Z, 37.16
2022-12-29T10:06:11.419Z, 37.05
2022-12-29T10:07:29.087Z, 36.94
2022-12-29T10:08:15.829Z, 36.85
2022-12-29T10:09:11.377Z, 36.74
2022-12-29T10:10:11.386Z, 36.64
2022-12-29T10:11:11.452Z, 36.51
2022-12-29T10:12:11.448Z, 36.40
2022-12-29T10:13:11.440Z, 36.28
2022-12-29T10:14:15.823Z, 36.13
2022-12-29T10:15:11.483Z, 35.99
2022-12-29T10:16:11.605Z, 35.87
2022-12-29T10:17:11.494Z, 35.78
2022-12-29T10:18:11.530Z, 35.66
2022-12-29T10:19:11.508Z, 35.55
2022-12-29T10:20:11.515Z, 35.44
2022-12-29T10:21:11.512Z, 35.32
2022-12-29T10:22:11.598Z, 35.19
2022-12-29T10:23:11.550Z, 35.08
2022-12-29T10:24:11.554Z, 34.98
2022-12-29T10:25:11.666Z, 34.87
2022-12-29T10:26:11.612Z, 34.78
2022-12-29T10:27:11.631Z, 34.70
2022-12-29T10:28:11.628Z, 34.58
2022-12-29T10:29:11.654Z, 34.48
2022-12-29T10:30:11.642Z, 34.37
2022-12-29T10:31:11.733Z, 34.26
2022-12-29T10:32:11.805Z, 34.18
2022-12-29T10:33:11.657Z, 34.10
2022-12-29T10:34:11.659Z, 33.99
2022-12-29T10:35:11.681Z, 33.93
2022-12-29T10:36:11.735Z, 33.85
2022-12-29T10:37:11.724Z, 33.80
2022-12-29T10:38:11.784Z, 33.73
2022-12-29T10:39:11.741Z, 33.63
2022-12-29T10:40:11.773Z, 33.54
2022-12-29T10:41:11.767Z, 33.45
2022-12-29T10:42:11.777Z, 33.39
2022-12-29T10:43:13.050Z, 33.34
2022-12-29T10:44:11.805Z, 33.29
2022-12-29T10:45:11.818Z, 33.21
2022-12-29T10:46:11.873Z, 33.15
2022-12-29T10:47:11.850Z, 33.08
2022-12-29T10:48:11.852Z, 32.99
2022-12-29T10:49:14.517Z, 32.96
2022-12-29T10:50:11.843Z, 32.88
2022-12-29T10:51:11.843Z, 32.83
2022-12-29T10:52:11.924Z, 32.75
2022-12-29T10:53:11.896Z, 32.71
2022-12-29T10:54:11.906Z, 32.66
2022-12-29T10:55:11.921Z, 32.59
2022-12-29T10:56:11.880Z, 32.53
2022-12-29T10:57:11.909Z, 32.48
2022-12-29T10:58:11.923Z, 32.43
2022-12-29T10:59:11.937Z, 32.37
2022-12-29T11:00:11.954Z, 32.31
2022-12-29T11:01:12.002Z, 32.26
2022-12-29T11:02:12.097Z, 32.69
2022-12-29T11:03:12.158Z, 33.10
2022-12-29T11:04:12.041Z, 33.13
2022-12-29T11:05:12.030Z, 32.93
2022-12-29T11:06:12.039Z, 32.48
2022-12-29T11:07:15.873Z, 31.87
2022-12-29T11:08:12.076Z, 31.08
2022-12-29T11:09:12.067Z, 34.83
2022-12-29T11:10:12.063Z, 41.46
2022-12-29T11:11:12.073Z, 45.12
2022-12-29T11:12:12.143Z, 43.94
2022-12-29T11:13:12.120Z, 42.25
2022-12-29T11:14:12.165Z, 41.26
2022-12-29T11:15:12.150Z, 40.16
2022-12-29T11:16:12.236Z, 39.02
2022-12-29T11:17:12.201Z, 37.96
2022-12-29T11:18:12.176Z, 36.91
2022-12-29T11:19:12.188Z, 35.78
2022-12-29T11:20:12.181Z, 34.88
2022-12-29T11:21:12.185Z, 34.08
2022-12-29T11:22:12.261Z, 33.28
2022-12-29T11:23:12.236Z, 32.39
2022-12-29T11:24:12.301Z, 31.39
2022-12-29T11:25:12.280Z, 30.22
2022-12-29T11:26:12.282Z, 29.01
2022-12-29T11:27:12.314Z, 33.19
2022-12-29T11:28:12.283Z, 39.72
2022-12-29T11:29:12.327Z, 44.73
2022-12-29T11:30:12.314Z, 45.28
2022-12-29T11:31:12.314Z, 45.27
2022-12-29T11:32:12.363Z, 45.50
2022-12-29T11:33:12.322Z, 45.22
2022-12-29T11:34:12.439Z, 44.76
2022-12-29T11:35:12.394Z, 44.28
2022-12-29T11:36:12.395Z, 43.89
2022-12-29T11:37:12.401Z, 43.63
2022-12-29T11:38:12.399Z, 43.41
2022-12-29T11:39:14.239Z, 43.18
2022-12-29T11:40:12.420Z, 42.98
2022-12-29T11:41:12.448Z, 42.77
2022-12-29T11:42:12.444Z, 42.55
2022-12-29T11:43:12.535Z, 42.33
2022-12-29T11:44:12.522Z, 42.16
2022-12-29T11:45:12.520Z, 41.98
2022-12-29T11:46:12.560Z, 41.79
2022-12-29T11:47:12.522Z, 41.61
2022-12-29T11:48:12.513Z, 41.45
2022-12-29T11:49:12.545Z, 41.32
2022-12-29T11:50:12.611Z, 41.15
2022-12-29T11:51:12.614Z, 40.97
2022-12-29T11:52:12.600Z, 40.83
2022-12-29T11:53:12.633Z, 40.73
2022-12-29T11:54:12.623Z, 40.56
2022-12-29T11:55:12.682Z, 40.41
2022-12-29T11:56:12.680Z, 40.28
2022-12-29T11:57:12.682Z, 40.20
2022-12-29T11:58:12.665Z, 40.04
2022-12-29T11:59:12.675Z, 39.89
2022-12-29T12:00:12.671Z, 39.75
2022-12-29T12:01:12.671Z, 39.64
2022-12-29T12:02:12.842Z, 39.53
2022-12-29T12:03:12.915Z, 39.38
2022-12-29T12:04:12.820Z, 39.25
2022-12-29T12:05:12.786Z, 39.11
2022-12-29T12:06:12.735Z, 38.99
2022-12-29T12:07:12.808Z, 38.89
2022-12-29T12:08:17.445Z, 38.81
2022-12-29T12:09:12.836Z, 38.68
2022-12-29T12:10:12.816Z, 38.57
2022-12-29T12:11:12.812Z, 38.45
2022-12-29T12:12:12.879Z, 38.35
2022-12-29T12:13:12.860Z, 38.26
2022-12-29T12:14:12.893Z, 38.15
2022-12-29T12:15:12.856Z, 38.06
2022-12-29T12:16:12.969Z, 37.97
2022-12-29T12:17:12.908Z, 37.87
2022-12-29T12:18:12.940Z, 37.82
2022-12-29T12:19:12.952Z, 37.75
2022-12-29T12:20:13.068Z, 37.64
2022-12-29T12:21:12.938Z, 37.57
2022-12-29T12:22:12.941Z, 37.44
2022-12-29T12:23:13.012Z, 37.37
2022-12-29T12:24:12.989Z, 37.28
2022-12-29T12:25:13.037Z, 37.22
2022-12-29T12:26:13.026Z, 37.11
2022-12-29T12:27:13.060Z, 37.02
2022-12-29T12:28:13.038Z, 36.92